Flight Track Log - Related Links

Times and Time Zones

All times are in EDT time to prevent confusion due to time zone crossing. See the N14UH flight status page for this flight to view local times or setup timezone preferences in your user account.

Time Position Orientation Groundspeed Altitude Reporting Facility
EDT Latitude Longitude Course Direction KTS MPH feet Rate Location/Type
Sat 06:52:15 AM 32.2943 -90.1533 153° Southeast  Level FlightAware Approximate
Sat 06:53:19 AM 32.2458 -90.1239 158° South 115 132 2,500  Level Memphis Center
Sat 06:54:19 AM 32.2250 -90.1142 154° Southeast 103 119 3,500 950 Climbing Memphis Center
Sat 06:55:19 AM 32.2039 -90.1019 151° Southeast 85 98 4,400 950 Climbing Memphis Center
Sat 06:56:19 AM 32.1853 -90.0897 154° Southeast 85 98 5,400 950 Climbing Memphis Center
Sat 06:57:19 AM 32.1642 -90.0775 156° South 85 98 6,300 800 Climbing Memphis Center
Sat 06:58:19 AM 32.1414 -90.0653 154° Southeast 85 98 7,000 350 Climbing Memphis Center
Sat 06:59:19 AM 32.1119 -90.0483 152° Southeast 97 112 7,000  Level Memphis Center
Sat 07:00:19 AM 32.0847 -90.0311 154° Southeast 110 127 7,000  Level Memphis Center
Sat 07:01:19 AM 32.0556 -90.0142 155° Southeast 115 132 7,000  Level Memphis Center
Sat 07:02:19 AM 32.0242 -89.9972 154° Southeast 115 132 7,000  Level Memphis Center
Sat 07:03:19 AM 31.9950 -89.9803 154° Southeast 115 132 7,000  Level Memphis Center
Sat 07:04:19 AM 31.9656 -89.9631 152° Southeast 115 132 7,000  Level Memphis Center
Sat 07:05:19 AM 31.9383 -89.9461 154° Southeast 115 132 7,000  Level Memphis Center
Sat 07:06:19 AM 31.9092 -89.9292 154° Southeast 115 132 7,000  Level Memphis Center
Sat 07:07:19 AM 31.8800 -89.9122 156° South 110 127 7,000  Level Memphis Center
Sat 07:09:37 AM 31.8075 -89.8736 156° South 128 147 7,000  Level Houston Center
Sat 07:10:37 AM 31.7761 -89.8569 150° Southeast 128 147 7,000  Level Houston Center
Sat 07:11:37 AM 31.7486 -89.8381 158° South 128 147 7,000  Level Houston Center
Sat 07:12:37 AM 31.7194 -89.8239 153° Southeast 128 147 7,000  Level Houston Center
Sat 07:13:37 AM 31.6878 -89.8050 152° Southeast 128 147 7,000  Level Houston Center
Sat 07:14:37 AM 31.6606 -89.7883 151° Southeast 128 147 7,000  Level Houston Center
Sat 07:15:37 AM 31.6311 -89.7694 155° Southeast 128 147 7,000  Level Houston Center
Sat 07:16:37 AM 31.6017 -89.7531 152° Southeast 128 147 7,000  Level Houston Center
Sat 07:17:37 AM 31.5719 -89.7342 158° South 128 147 7,000  Level Houston Center
Sat 07:18:37 AM 31.5428 -89.7200 156° South 128 147 7,000  Level Houston Center
Sat 07:19:37 AM 31.5111 -89.7036 149° Southeast 128 147 7,000  Level Houston Center
Sat 07:20:37 AM 31.4839 -89.6847 158° South 123 142 7,000  Level Houston Center
Sat 07:21:37 AM 31.4544 -89.6708 156° South 118 136 7,000  Level Houston Center
Sat 07:22:37 AM 31.4228 -89.6544 154° Southeast 118 136 7,000  Level Houston Center
Sat 07:23:37 AM 31.3933 -89.6378 155° Southeast 118 136 7,000  Level Houston Center
Sat 07:24:37 AM 31.3639 -89.6214 151° Southeast 113 130 7,000  Level Houston Center
Sat 07:25:37 AM 31.3344 -89.6025 151° Southeast 113 130 7,000  Level Houston Center

Login

Don't have an account? Register now (free) for customized features, flight alerts, and more!